sensor_id;sensor_type;location;lat;lon;timestamp;pressure;altitude;pressure_sealevel;temperature;humidity
59104;BME280;51449;51.676;5.812;2023-02-18T00:01:11;102166.91;;;11.96;83.18
59104;BME280;51449;51.676;5.812;2023-02-18T00:03:34;102167.72;;;11.96;83.25
59104;BME280;51449;51.676;5.812;2023-02-18T00:05:56;102165.88;;;11.92;83.75
59104;BME280;51449;51.676;5.812;2023-02-18T00:08:19;102165.06;;;11.91;83.90
59104;BME280;51449;51.676;5.812;2023-02-18T00:10:41;102158.41;;;11.92;83.80
59104;BME280;51449;51.676;5.812;2023-02-18T00:13:02;102152.28;;;11.95;83.54
59104;BME280;51449;51.676;5.812;2023-02-18T00:15:24;102145.97;;;11.95;83.92
59104;BME280;51449;51.676;5.812;2023-02-18T00:17:46;102142.69;;;11.93;83.78
59104;BME280;51449;51.676;5.812;2023-02-18T00:20:07;102136.53;;;11.96;83.46
59104;BME280;51449;51.676;5.812;2023-02-18T00:22:29;102141.25;;;11.95;83.76
59104;BME280;51449;51.676;5.812;2023-02-18T00:24:51;102128.53;;;11.94;83.56
59104;BME280;51449;51.676;5.812;2023-02-18T00:27:13;102139.06;;;11.92;83.88
59104;BME280;51449;51.676;5.812;2023-02-18T00:29:35;102134.91;;;11.95;83.86
59104;BME280;51449;51.676;5.812;2023-02-18T00:31:59;102135.00;;;11.90;84.28
59104;BME280;51449;51.676;5.812;2023-02-18T00:34:23;102122.03;;;11.90;83.98
59104;BME280;51449;51.676;5.812;2023-02-18T00:36:45;102131.94;;;11.91;83.99
59104;BME280;51449;51.676;5.812;2023-02-18T00:39:08;102117.81;;;11.93;84.23
59104;BME280;51449;51.676;5.812;2023-02-18T00:41:33;102128.25;;;11.96;83.86
59104;BME280;51449;51.676;5.812;2023-02-18T00:43:56;102119.16;;;11.95;84.07
59104;BME280;51449;51.676;5.812;2023-02-18T00:46:18;102108.09;;;11.95;84.04
59104;BME280;51449;51.676;5.812;2023-02-18T00:48:40;102120.25;;;11.94;84.19
59104;BME280;51449;51.676;5.812;2023-02-18T00:51:04;102111.38;;;11.97;83.95
59104;BME280;51449;51.676;5.812;2023-02-18T00:53:28;102104.81;;;11.93;84.19
59104;BME280;51449;51.676;5.812;2023-02-18T00:55:50;102097.06;;;11.95;83.90
59104;BME280;51449;51.676;5.812;2023-02-18T00:58:11;102108.09;;;11.95;84.21
59104;BME280;51449;51.676;5.812;2023-02-18T01:00:34;102105.13;;;11.92;83.95
59104;BME280;51449;51.676;5.812;2023-02-18T01:02:56;102100.09;;;11.94;84.51
59104;BME280;51449;51.676;5.812;2023-02-18T01:05:20;102098.16;;;11.94;84.29
59104;BME280;51449;51.676;5.812;2023-02-18T01:07:42;102094.06;;;11.92;84.63
59104;BME280;51449;51.676;5.812;2023-02-18T01:10:04;102088.25;;;11.93;84.23
59104;BME280;51449;51.676;5.812;2023-02-18T01:12:26;102091.53;;;11.95;84.12
59104;BME280;51449;51.676;5.812;2023-02-18T01:14:48;102089.88;;;11.94;84.25
59104;BME280;51449;51.676;5.812;2023-02-18T01:17:09;102098.16;;;11.94;84.54
59104;BME280;51449;51.676;5.812;2023-02-18T01:19:33;102079.34;;;11.96;84.52
59104;BME280;51449;51.676;5.812;2023-02-18T01:21:55;102077.38;;;11.97;84.73
59104;BME280;51449;51.676;5.812;2023-02-18T01:24:16;102086.81;;;11.96;84.37
59104;BME280;51449;51.676;5.812;2023-02-18T01:26:38;102077.72;;;11.95;84.92
59104;BME280;51449;51.676;5.812;2023-02-18T01:29:00;102076.06;;;11.94;85.04
59104;BME280;51449;51.676;5.812;2023-02-18T01:31:21;102068.91;;;11.93;84.70
59104;BME280;51449;51.676;5.812;2023-02-18T01:33:44;102071.69;;;11.93;84.86
59104;BME280;51449;51.676;5.812;2023-02-18T01:36:07;102062.25;;;11.94;85.17
59104;BME280;51449;51.676;5.812;2023-02-18T01:38:31;102066.16;;;11.93;85.32
59104;BME280;51449;51.676;5.812;2023-02-18T01:40:52;102057.88;;;11.93;84.98
59104;BME280;51449;51.676;5.812;2023-02-18T01:43:14;102065.53;;;11.96;84.89
59104;BME280;51449;51.676;5.812;2023-02-18T01:46:33;102060.22;;;12.00;84.92
59104;BME280;51449;51.676;5.812;2023-02-18T01:51:31;102070.03;;;11.92;85.74
59104;BME280;51449;51.676;5.812;2023-02-18T01:54:02;102061.44;;;11.94;85.59
59104;BME280;51449;51.676;5.812;2023-02-18T01:57:05;102070.38;;;11.91;86.05
59104;BME280;51449;51.676;5.812;2023-02-18T01:59:33;102061.06;;;11.87;86.56
59104;BME280;51449;51.676;5.812;2023-02-18T02:01:59;102056.13;;;11.84;86.81
59104;BME280;51449;51.676;5.812;2023-02-18T02:04:23;102065.22;;;11.84;86.98
59104;BME280;51449;51.676;5.812;2023-02-18T02:06:45;102059.19;;;11.82;87.19
59104;BME280;51449;51.676;5.812;2023-02-18T02:09:09;102050.09;;;11.82;87.43
59104;BME280;51449;51.676;5.812;2023-02-18T02:14:39;102045.63;;;11.72;88.47
59104;BME280;51449;51.676;5.812;2023-02-18T02:20:17;102039.72;;;11.65;89.03
59104;BME280;51449;51.676;5.812;2023-02-18T02:32:25;102016.44;;;11.57;90.29
59104;BME280;51449;51.676;5.812;2023-02-18T02:35:12;102013.16;;;11.55;90.71
59104;BME280;51449;51.676;5.812;2023-02-18T02:38:05;102013.97;;;11.55;90.66
59104;BME280;51449;51.676;5.812;2023-02-18T02:40:47;102009.59;;;11.54;90.75
59104;BME280;51449;51.676;5.812;2023-02-18T02:43:42;101998.56;;;11.54;90.85
59104;BME280;51449;51.676;5.812;2023-02-18T02:46:34;101992.03;;;11.50;90.97
59104;BME280;51449;51.676;5.812;2023-02-18T02:49:19;101986.50;;;11.50;91.20
59104;BME280;51449;51.676;5.812;2023-02-18T02:51:55;101987.00;;;11.52;90.72
59104;BME280;51449;51.676;5.812;2023-02-18T02:54:53;101974.88;;;11.53;90.52
59104;BME280;51449;51.676;5.812;2023-02-18T02:59:51;101964.31;;;11.55;90.35
59104;BME280;51449;51.676;5.812;2023-02-18T03:03:19;101959.91;;;11.54;90.45
59104;BME280;51449;51.676;5.812;2023-02-18T03:05:38;101952.56;;;11.50;90.70
59104;BME280;51449;51.676;5.812;2023-02-18T03:08:17;101947.19;;;11.45;91.23
59104;BME280;51449;51.676;5.812;2023-02-18T03:11:12;101945.56;;;11.44;91.61
59104;BME280;51449;51.676;5.812;2023-02-18T03:13:50;101932.38;;;11.41;91.73
59104;BME280;51449;51.676;5.812;2023-02-18T03:16:58;101928.28;;;11.38;92.02
59104;BME280;51449;51.676;5.812;2023-02-18T03:19:39;101928.78;;;11.40;91.73
59104;BME280;51449;51.676;5.812;2023-02-18T03:22:12;101920.50;;;11.40;91.65
59104;BME280;51449;51.676;5.812;2023-02-18T03:24:46;101903.97;;;11.40;91.63
59104;BME280;51449;51.676;5.812;2023-02-18T03:27:39;101911.72;;;11.38;91.62
59104;BME280;51449;51.676;5.812;2023-02-18T03:30:10;101900.69;;;11.38;92.08
59104;BME280;51449;51.676;5.812;2023-02-18T03:32:36;101903.44;;;11.38;91.98
59104;BME280;51449;51.676;5.812;2023-02-18T03:35:13;101907.34;;;11.37;92.01
59104;BME280;51449;51.676;5.812;2023-02-18T03:37:42;101899.06;;;11.37;92.10
59104;BME280;51449;51.676;5.812;2023-02-18T03:40:10;101876.19;;;11.37;91.99
59104;BME280;51449;51.676;5.812;2023-02-18T03:42:33;101881.38;;;11.38;91.93
59104;BME280;51449;51.676;5.812;2023-02-18T03:44:55;101879.25;;;11.35;91.54
59104;BME280;51449;51.676;5.812;2023-02-18T03:47:17;101869.84;;;11.36;92.01
59104;BME280;51449;51.676;5.812;2023-02-18T03:49:38;101876.50;;;11.35;91.72
59104;BME280;51449;51.676;5.812;2023-02-18T03:52:00;101879.09;;;11.31;91.83
59104;BME280;51449;51.676;5.812;2023-02-18T03:54:22;101861.19;;;11.29;92.15
59104;BME280;51449;51.676;5.812;2023-02-18T03:56:44;101859.25;;;11.29;92.24
59104;BME280;51449;51.676;5.812;2023-02-18T03:59:05;101858.41;;;11.29;91.98
59104;BME280;51449;51.676;5.812;2023-02-18T04:01:27;101867.84;;;11.28;92.32
59104;BME280;51449;51.676;5.812;2023-02-18T04:03:49;101868.13;;;11.26;92.21
59104;BME280;51449;51.676;5.812;2023-02-18T04:06:11;101856.63;;;11.24;92.11
59104;BME280;51449;51.676;5.812;2023-02-18T04:08:34;101848.81;;;11.26;92.32
59104;BME280;51449;51.676;5.812;2023-02-18T04:10:57;101840.88;;;11.25;92.39
59104;BME280;51449;51.676;5.812;2023-02-18T04:13:20;101844.75;;;11.24;92.49
59104;BME280;51449;51.676;5.812;2023-02-18T04:15:43;101835.66;;;11.23;92.47
59104;BME280;51449;51.676;5.812;2023-02-18T04:18:06;101835.16;;;11.21;92.83
59104;BME280;51449;51.676;5.812;2023-02-18T04:20:27;101835.78;;;11.18;92.75
59104;BME280;51449;51.676;5.812;2023-02-18T04:22:49;101828.84;;;11.21;92.76
59104;BME280;51449;51.676;5.812;2023-02-18T04:25:11;101820.88;;;11.19;92.71
59104;BME280;51449;51.676;5.812;2023-02-18T04:27:32;101826.19;;;11.16;93.17
59104;BME280;51449;51.676;5.812;2023-02-18T04:29:54;101822.13;;;11.13;93.05
59104;BME280;51449;51.676;5.812;2023-02-18T04:32:16;101818.56;;;11.12;93.14
59104;BME280;51449;51.676;5.812;2023-02-18T04:34:37;101818.22;;;11.14;93.49
59104;BME280;51449;51.676;5.812;2023-02-18T04:36:59;101820.69;;;11.16;93.16
59104;BME280;51449;51.676;5.812;2023-02-18T04:39:21;101823.16;;;11.17;93.54
59104;BME280;51449;51.676;5.812;2023-02-18T04:41:42;101819.88;;;11.15;93.49
59104;BME280;51449;51.676;5.812;2023-02-18T04:44:04;101815.81;;;11.12;93.28
59104;BME280;51449;51.676;5.812;2023-02-18T04:46:26;101821.81;;;11.14;93.70
59104;BME280;51449;51.676;5.812;2023-02-18T04:48:48;101808.03;;;11.14;93.23
59104;BME280;51449;51.676;5.812;2023-02-18T04:51:09;101815.47;;;11.14;93.21
59104;BME280;51449;51.676;5.812;2023-02-18T04:53:31;101817.41;;;11.13;93.34
59104;BME280;51449;51.676;5.812;2023-02-18T04:55:53;101807.19;;;11.14;93.21
59104;BME280;51449;51.676;5.812;2023-02-18T04:58:14;101815.81;;;11.12;93.33
59104;BME280;51449;51.676;5.812;2023-02-18T05:00:36;101815.16;;;11.16;92.96
59104;BME280;51449;51.676;5.812;2023-02-18T05:02:58;101810.47;;;11.16;93.16
59104;BME280;51449;51.676;5.812;2023-02-18T05:05:20;101813.66;;;11.09;93.62
59104;BME280;51449;51.676;5.812;2023-02-18T05:07:41;101813.66;;;11.09;93.51
59104;BME280;51449;51.676;5.812;2023-02-18T05:10:04;101808.13;;;11.09;93.82
59104;BME280;51449;51.676;5.812;2023-02-18T05:12:26;101803.13;;;11.11;93.59
59104;BME280;51449;51.676;5.812;2023-02-18T05:14:48;101808.63;;;11.11;93.60
59104;BME280;51449;51.676;5.812;2023-02-18T05:17:09;101794.53;;;11.13;93.31
59104;BME280;51449;51.676;5.812;2023-02-18T05:19:31;101805.88;;;11.11;93.17
59104;BME280;51449;51.676;5.812;2023-02-18T05:21:52;101790.47;;;11.10;93.62
59104;BME280;51449;51.676;5.812;2023-02-18T05:24:14;101785.78;;;11.11;93.48
59104;BME280;51449;51.676;5.812;2023-02-18T05:26:36;101783.81;;;11.11;93.28
59104;BME280;51449;51.676;5.812;2023-02-18T05:28:57;101781.41;;;11.10;93.25
59104;BME280;51449;51.676;5.812;2023-02-18T05:31:19;101790.47;;;11.10;93.22
59104;BME280;51449;51.676;5.812;2023-02-18T05:33:41;101777.50;;;11.11;93.31
59104;BME280;51449;51.676;5.812;2023-02-18T05:36:03;101779.25;;;11.07;93.38
59104;BME280;51449;51.676;5.812;2023-02-18T05:38:25;101776.81;;;11.05;93.50
59104;BME280;51449;51.676;5.812;2023-02-18T05:40:46;101780.22;;;11.02;93.67
59104;BME280;51449;51.676;5.812;2023-02-18T05:43:08;101773.56;;;11.03;93.90
59104;BME280;51449;51.676;5.812;2023-02-18T05:45:30;101773.56;;;11.03;93.52
59104;BME280;51449;51.676;5.812;2023-02-18T05:47:51;101767.03;;;10.99;93.92
59104;BME280;51449;51.676;5.812;2023-02-18T05:50:13;101763.16;;;11.00;93.93
59104;BME280;51449;51.676;5.812;2023-02-18T05:52:35;101769.47;;;11.01;94.04
59104;BME280;51449;51.676;5.812;2023-02-18T05:54:56;101755.69;;;11.01;93.96
59104;BME280;51449;51.676;5.812;2023-02-18T05:57:18;101758.63;;;11.04;93.69
59104;BME280;51449;51.676;5.812;2023-02-18T05:59:40;101753.09;;;11.04;93.81
59104;BME280;51449;51.676;5.812;2023-02-18T06:02:02;101734.13;;;11.03;93.74
59104;BME280;51449;51.676;5.812;2023-02-18T06:04:24;101744.97;;;10.99;93.54
59104;BME280;51449;51.676;5.812;2023-02-18T06:06:45;101748.34;;;10.96;93.91
59104;BME280;51449;51.676;5.812;2023-02-18T06:09:07;101749.97;;;10.97;93.90
59104;BME280;51449;51.676;5.812;2023-02-18T06:11:30;101755.00;;;10.95;94.00
59104;BME280;51449;51.676;5.812;2023-02-18T06:13:52;101760.31;;;10.91;94.08
59104;BME280;51449;51.676;5.812;2023-02-18T06:16:13;101749.28;;;10.91;94.47
59104;BME280;51449;51.676;5.812;2023-02-18T06:18:35;101761.47;;;10.90;94.40
59104;BME280;51449;51.676;5.812;2023-02-18T06:20:57;101752.38;;;10.90;94.40
59104;BME280;51449;51.676;5.812;2023-02-18T06:23:19;101751.75;;;10.93;94.68
59104;BME280;51449;51.676;5.812;2023-02-18T06:25:41;101746.75;;;10.95;94.34
59104;BME280;51449;51.676;5.812;2023-02-18T06:28:03;101754.38;;;10.98;94.06
59104;BME280;51449;51.676;5.812;2023-02-18T06:30:24;101754.88;;;11.00;94.23
59104;BME280;51449;51.676;5.812;2023-02-18T06:32:46;101751.63;;;10.98;93.83
59104;BME280;51449;51.676;5.812;2023-02-18T06:35:08;101736.19;;;10.97;94.19
59104;BME280;51449;51.676;5.812;2023-02-18T06:37:29;101737.63;;;10.95;94.13
59104;BME280;51449;51.676;5.812;2023-02-18T06:39:51;101741.22;;;10.95;94.03
59104;BME280;51449;51.676;5.812;2023-02-18T06:42:13;101741.41;;;10.99;94.11
59104;BME280;51449;51.676;5.812;2023-02-18T06:44:34;101738.94;;;10.97;94.19
59104;BME280;51449;51.676;5.812;2023-02-18T06:46:58;101733.94;;;10.99;94.13
59104;BME280;51449;51.676;5.812;2023-02-18T06:49:20;101737.84;;;10.98;93.72
59104;BME280;51449;51.676;5.812;2023-02-18T06:51:42;101741.69;;;10.97;94.04
59104;BME280;51449;51.676;5.812;2023-02-18T06:54:03;101740.09;;;10.96;94.06
59104;BME280;51449;51.676;5.812;2023-02-18T06:56:26;101737.31;;;10.96;93.58
59104;BME280;51449;51.676;5.812;2023-02-18T06:58:49;101737.31;;;10.96;93.73
59104;BME280;51449;51.676;5.812;2023-02-18T07:01:11;101748.88;;;10.98;93.88
59104;BME280;51449;51.676;5.812;2023-02-18T07:03:33;101749.16;;;10.97;93.75
59104;BME280;51449;51.676;5.812;2023-02-18T07:05:55;101750.81;;;10.98;93.78
59104;BME280;51449;51.676;5.812;2023-02-18T07:08:17;101757.44;;;10.97;93.69
59104;BME280;51449;51.676;5.812;2023-02-18T07:10:39;101769.28;;;10.97;93.97
59104;BME280;51449;51.676;5.812;2023-02-18T07:13:01;101755.00;;;10.95;93.55
59104;BME280;51449;51.676;5.812;2023-02-18T07:15:22;101757.25;;;10.93;93.71
59104;BME280;51449;51.676;5.812;2023-02-18T07:17:44;101758.88;;;10.94;93.53
59104;BME280;51449;51.676;5.812;2023-02-18T07:20:07;101758.06;;;10.93;93.66
59104;BME280;51449;51.676;5.812;2023-02-18T07:22:30;101764.22;;;10.90;93.57
59104;BME280;51449;51.676;5.812;2023-02-18T07:24:52;101751.88;;;10.88;93.55
59104;BME280;51449;51.676;5.812;2023-02-18T07:27:14;101747.47;;;10.87;93.98
59104;BME280;51449;51.676;5.812;2023-02-18T07:29:35;101769.03;;;10.85;93.68
59104;BME280;51449;51.676;5.812;2023-02-18T07:31:57;101763.84;;;10.83;93.22
59104;BME280;51449;51.676;5.812;2023-02-18T07:34:19;101768.63;;;10.78;93.23
59104;BME280;51449;51.676;5.812;2023-02-18T07:36:41;101768.75;;;10.73;93.11
59104;BME280;51449;51.676;5.812;2023-02-18T07:39:03;101781.84;;;10.67;92.77
59104;BME280;51449;51.676;5.812;2023-02-18T07:41:25;101761.25;;;10.64;93.03
59104;BME280;51449;51.676;5.812;2023-02-18T07:43:47;101779.22;;;10.62;92.48
59104;BME280;51449;51.676;5.812;2023-02-18T07:46:09;101787.28;;;10.58;92.73
59104;BME280;51449;51.676;5.812;2023-02-18T07:48:31;101780.66;;;10.59;92.90
59104;BME280;51449;51.676;5.812;2023-02-18T07:50:53;101785.16;;;10.55;92.92
59104;BME280;51449;51.676;5.812;2023-02-18T07:53:15;101794.56;;;10.54;92.89
59104;BME280;51449;51.676;5.812;2023-02-18T07:55:37;101794.03;;;10.52;92.49
59104;BME280;51449;51.676;5.812;2023-02-18T07:58:11;101780.91;;;10.49;92.90
59104;BME280;51449;51.676;5.812;2023-02-18T08:00:33;101787.22;;;10.49;92.53
59104;BME280;51449;51.676;5.812;2023-02-18T08:02:54;101801.78;;;10.50;92.59
59104;BME280;51449;51.676;5.812;2023-02-18T08:05:16;101791.09;;;10.48;92.43
59104;BME280;51449;51.676;5.812;2023-02-18T08:07:38;101792.50;;;10.46;91.99
59104;BME280;51449;51.676;5.812;2023-02-18T08:10:00;101793.66;;;10.45;91.83
59104;BME280;51449;51.676;5.812;2023-02-18T08:12:22;101796.91;;;10.47;91.63
59104;BME280;51449;51.676;5.812;2023-02-18T08:14:43;101794.66;;;10.49;91.62
59104;BME280;51449;51.676;5.812;2023-02-18T08:17:05;101799.84;;;10.50;91.60
59104;BME280;51449;51.676;5.812;2023-02-18T08:19:27;101803.31;;;10.56;90.96
59104;BME280;51449;51.676;5.812;2023-02-18T08:21:48;101805.47;;;10.59;90.70
59104;BME280;51449;51.676;5.812;2023-02-18T08:24:10;101803.72;;;10.63;90.32
59104;BME280;51449;51.676;5.812;2023-02-18T08:26:32;101791.44;;;10.69;90.07
59104;BME280;51449;51.676;5.812;2023-02-18T08:28:53;101789.19;;;10.71;89.43
59104;BME280;51449;51.676;5.812;2023-02-18T08:31:24;101777.03;;;10.73;88.82
59104;BME280;51449;51.676;5.812;2023-02-18T08:33:48;101797.47;;;10.71;88.08
59104;BME280;51449;51.676;5.812;2023-02-18T08:36:10;101803.88;;;10.81;87.97
59104;BME280;51449;51.676;5.812;2023-02-18T08:38:31;101796.72;;;10.80;87.27
59104;BME280;51449;51.676;5.812;2023-02-18T08:41:01;101792.84;;;10.81;86.86
59104;BME280;51449;51.676;5.812;2023-02-18T08:43:23;101778.56;;;10.79;86.49
59104;BME280;51449;51.676;5.812;2023-02-18T08:45:45;101788.78;;;10.78;86.24
59104;BME280;51449;51.676;5.812;2023-02-18T08:48:08;101784.25;;;10.82;85.89
59104;BME280;51449;51.676;5.812;2023-02-18T08:50:40;101792.50;;;10.82;85.38
59104;BME280;51449;51.676;5.812;2023-02-18T08:53:02;101798.53;;;10.84;85.41
59104;BME280;51449;51.676;5.812;2023-02-18T08:55:24;101793.53;;;10.86;84.71
59104;BME280;51449;51.676;5.812;2023-02-18T08:57:48;101792.72;;;10.86;84.90
59104;BME280;51449;51.676;5.812;2023-02-18T09:00:10;101801.00;;;10.86;84.54
59104;BME280;51449;51.676;5.812;2023-02-18T09:02:35;101791.59;;;10.87;84.81
59104;BME280;51449;51.676;5.812;2023-02-18T09:04:57;101806.50;;;10.86;84.27
59104;BME280;51449;51.676;5.812;2023-02-18T09:07:19;101793.53;;;10.86;83.95
59104;BME280;51449;51.676;5.812;2023-02-18T09:09:41;101791.06;;;10.85;83.73
59104;BME280;51449;51.676;5.812;2023-02-18T09:12:03;101792.22;;;10.84;84.27
59104;BME280;51449;51.676;5.812;2023-02-18T09:14:27;101796.41;;;10.81;84.55
59104;BME280;51449;51.676;5.812;2023-02-18T09:16:48;101795.59;;;10.81;84.96
59104;BME280;51449;51.676;5.812;2023-02-18T09:19:11;101793.44;;;10.78;85.32
59104;BME280;51449;51.676;5.812;2023-02-18T09:21:32;101798.97;;;10.78;85.47
59104;BME280;51449;51.676;5.812;2023-02-18T09:23:54;101786.81;;;10.79;85.41
59104;BME280;51449;51.676;5.812;2023-02-18T09:26:18;101797.34;;;10.77;85.54
59104;BME280;51449;51.676;5.812;2023-02-18T09:28:45;101795.34;;;10.68;85.17
59104;BME280;51449;51.676;5.812;2023-02-18T09:31:12;101792.06;;;10.66;85.73
59104;BME280;51449;51.676;5.812;2023-02-18T09:33:38;101777.59;;;10.61;85.91
59104;BME280;51449;51.676;5.812;2023-02-18T09:36:02;101788.41;;;10.57;86.59
59104;BME280;51449;51.676;5.812;2023-02-18T09:38:24;101793.41;;;10.55;86.21
59104;BME280;51449;51.676;5.812;2023-02-18T09:40:51;101778.66;;;10.51;86.32
59104;BME280;51449;51.676;5.812;2023-02-18T09:43:25;101794.84;;;10.53;85.73
59104;BME280;51449;51.676;5.812;2023-02-18T09:45:51;101792.91;;;10.53;85.50
59104;BME280;51449;51.676;5.812;2023-02-18T09:48:14;101801.50;;;10.52;85.15
59104;BME280;51449;51.676;5.812;2023-02-18T09:50:36;101801.78;;;10.50;84.81
59104;BME280;51449;51.676;5.812;2023-02-18T09:52:59;101795.19;;;10.51;84.98
59104;BME280;51449;51.676;5.812;2023-02-18T09:55:34;101807.00;;;10.52;84.90
59104;BME280;51449;51.676;5.812;2023-02-18T10:00:42;101802.50;;;10.56;84.19
59104;BME280;51449;51.676;5.812;2023-02-18T10:03:15;101791.00;;;10.54;84.04
59104;BME280;51449;51.676;5.812;2023-02-18T10:06:02;101810.28;;;10.54;83.96
59104;BME280;51449;51.676;5.812;2023-02-18T10:08:31;101811.25;;;10.58;83.54
59104;BME280;51449;51.676;5.812;2023-02-18T10:10:56;101807.41;;;10.59;83.35
59104;BME280;51449;51.676;5.812;2023-02-18T10:13:22;101802.88;;;10.63;82.97
59104;BME280;51449;51.676;5.812;2023-02-18T10:15:47;101811.03;;;10.68;82.80
59104;BME280;51449;51.676;5.812;2023-02-18T10:18:17;101794.50;;;10.68;82.18
59104;BME280;51449;51.676;5.812;2023-02-18T10:20:48;101813.50;;;10.69;82.13
59104;BME280;51449;51.676;5.812;2023-02-18T10:23:14;101808.19;;;10.73;81.39
59104;BME280;51449;51.676;5.812;2023-02-18T10:25:43;101829.91;;;10.75;81.33
59104;BME280;51449;51.676;5.812;2023-02-18T10:28:08;101842.47;;;10.81;81.37
59104;BME280;51449;51.676;5.812;2023-02-18T10:30:36;101829.38;;;10.86;81.11
59104;BME280;51449;51.676;5.812;2023-02-18T10:33:31;101856.00;;;10.91;81.28
59104;BME280;51449;51.676;5.812;2023-02-18T10:36:23;101841.59;;;10.94;80.77
59104;BME280;51449;51.676;5.812;2023-02-18T10:42:12;101843.72;;;10.97;80.90
59104;BME280;51449;51.676;5.812;2023-02-18T10:45:06;101851.19;;;10.97;81.26
59104;BME280;51449;51.676;5.812;2023-02-18T10:47:38;101844.88;;;10.96;81.38
59104;BME280;51449;51.676;5.812;2023-02-18T10:50:11;101852.00;;;10.97;81.40
59104;BME280;51449;51.676;5.812;2023-02-18T10:52:55;101839.84;;;10.98;82.14
59104;BME280;51449;51.676;5.812;2023-02-18T10:55:37;101852.63;;;10.94;83.15
59104;BME280;51449;51.676;5.812;2023-02-18T10:58:01;101851.31;;;10.91;83.62
59104;BME280;51449;51.676;5.812;2023-02-18T11:00:25;101855.22;;;10.90;84.56
59104;BME280;51449;51.676;5.812;2023-02-18T11:03:01;101850.00;;;10.89;85.28
59104;BME280;51449;51.676;5.812;2023-02-18T11:05:35;101857.25;;;10.85;85.78
59104;BME280;51449;51.676;5.812;2023-02-18T11:07:57;101866.94;;;10.82;86.28
59104;BME280;51449;51.676;5.812;2023-02-18T11:10:29;101857.34;;;10.80;86.55
59104;BME280;51449;51.676;5.812;2023-02-18T11:12:57;101857.69;;;10.78;87.23
59104;BME280;51449;51.676;5.812;2023-02-18T11:15:24;101858.00;;;10.77;87.43
59104;BME280;51449;51.676;5.812;2023-02-18T11:17:50;101857.19;;;10.76;87.33
59104;BME280;51449;51.676;5.812;2023-02-18T11:20:28;101860.22;;;10.75;87.71
59104;BME280;51449;51.676;5.812;2023-02-18T11:25:30;101849.03;;;10.71;88.20
59104;BME280;51449;51.676;5.812;2023-02-18T11:28:04;101860.06;;;10.71;88.75
59104;BME280;51449;51.676;5.812;2023-02-18T11:30:38;101860.66;;;10.68;88.76
59104;BME280;51449;51.676;5.812;2023-02-18T11:33:34;101852.59;;;10.71;89.12
59104;BME280;51449;51.676;5.812;2023-02-18T11:36:11;101855.53;;;10.75;88.93
59104;BME280;51449;51.676;5.812;2023-02-18T11:38:43;101857.19;;;10.76;89.20
59104;BME280;51449;51.676;5.812;2023-02-18T11:41:11;101856.97;;;10.73;89.68
59104;BME280;51449;51.676;5.812;2023-02-18T11:43:40;101859.59;;;10.78;90.08
59104;BME280;51449;51.676;5.812;2023-02-18T11:46:16;101860.13;;;10.80;90.12
59104;BME280;51449;51.676;5.812;2023-02-18T11:48:41;101856.25;;;10.81;90.22
59104;BME280;51449;51.676;5.812;2023-02-18T11:51:02;101849.09;;;10.80;90.60
59104;BME280;51449;51.676;5.812;2023-02-18T11:53:34;101854.00;;;10.83;90.78
59104;BME280;51449;51.676;5.812;2023-02-18T11:56:15;101852.25;;;10.87;90.51
59104;BME280;51449;51.676;5.812;2023-02-18T11:58:40;101856.00;;;10.91;90.74
59104;BME280;51449;51.676;5.812;2023-02-18T12:01:12;101847.75;;;10.91;90.72
59104;BME280;51449;51.676;5.812;2023-02-18T12:03:52;101843.38;;;10.90;90.82
59104;BME280;51449;51.676;5.812;2023-02-18T12:06:27;101847.31;;;10.98;91.22
59104;BME280;51449;51.676;5.812;2023-02-18T12:08:57;101851.41;;;11.00;91.15
59104;BME280;51449;51.676;5.812;2023-02-18T12:11:36;101834.09;;;11.08;91.03
59104;BME280;51449;51.676;5.812;2023-02-18T12:14:02;101826.03;;;11.12;91.25
59104;BME280;51449;51.676;5.812;2023-02-18T12:16:35;101826.38;;;11.19;90.97
59104;BME280;51449;51.676;5.812;2023-02-18T12:22:20;101824.34;;;11.25;90.47
59104;BME280;51449;51.676;5.812;2023-02-18T12:25:07;101810.41;;;11.30;90.34
59104;BME280;51449;51.676;5.812;2023-02-18T12:30:50;101818.56;;;11.35;90.03
59104;BME280;51449;51.676;5.812;2023-02-18T12:36:53;101806.75;;;11.43;89.24
59104;BME280;51449;51.676;5.812;2023-02-18T12:57:26;101816.59;;;11.89;85.71
59104;BME280;51449;51.676;5.812;2023-02-18T13:00:10;101820.88;;;11.95;85.47
59104;BME280;51449;51.676;5.812;2023-02-18T13:06:07;101804.34;;;12.13;84.23
59104;BME280;51449;51.676;5.812;2023-02-18T13:09:28;101804.03;;;12.23;83.12
59104;BME280;51449;51.676;5.812;2023-02-18T13:12:12;101812.69;;;12.30;83.10
59104;BME280;51449;51.676;5.812;2023-02-18T13:15:02;101810.09;;;12.34;81.80
59104;BME280;51449;51.676;5.812;2023-02-18T13:17:35;101816.28;;;12.39;81.75
59104;BME280;51449;51.676;5.812;2023-02-18T13:20:13;101816.94;;;12.45;80.92
59104;BME280;51449;51.676;5.812;2023-02-18T13:22:41;101809.63;;;12.49;80.99
59104;BME280;51449;51.676;5.812;2023-02-18T13:25:05;101811.75;;;12.52;80.88
59104;BME280;51449;51.676;5.812;2023-02-18T13:30:40;101818.28;;;12.56;80.24
59104;BME280;51449;51.676;5.812;2023-02-18T13:33:28;101809.63;;;12.58;80.01
59104;BME280;51449;51.676;5.812;2023-02-18T13:36:05;101813.56;;;12.57;80.17
59104;BME280;51449;51.676;5.812;2023-02-18T13:41:25;101804.94;;;12.67;80.27
59104;BME280;51449;51.676;5.812;2023-02-18T13:43:48;101819.75;;;12.71;80.33
59104;BME280;51449;51.676;5.812;2023-02-18T13:48:45;101825.28;;;12.71;79.08
59104;BME280;51449;51.676;5.812;2023-02-18T13:51:46;101820.53;;;12.63;78.40
59104;BME280;51449;51.676;5.812;2023-02-18T13:56:34;101818.44;;;12.60;78.43
59104;BME280;51449;51.676;5.812;2023-02-18T13:59:17;101830.13;;;12.57;78.51
59104;BME280;51449;51.676;5.812;2023-02-18T14:12:40;101818.91;;;12.53;78.45